(°C)
11°
13°
15°
17°
19°
(°C)
10°
12°
14°
16°
S
S
S
SSE
SSE
SSE
S
(km/h)
9-10
7-13
8-14
9-15
12-17
14-20
16-23
(mm)
0
0
0
0
0
0
0
(%)
0
0
0
0
0
0
0

Elevazione del sole

/ 12.3°
sun-icon
UV 7
05:24
20:34
Luna calante (335°)
04:55
18:06

METAR per 50.1°N 14.27°E (LKPR)

Ora Condizioni Temperatura/
Punto di rugiada
Vento Visibilità Tempo Nuvole Pressione Cambiamento Grezzo
VFR 7°C / 1°C 230º variable 190º to 260º 3kt >10km - Clouds and Visibility OK 1015 No Significant change LKPR 090430Z 23003KT 190V260 CAVOK 07/01 Q1015 NOSIG
VFR 6°C / 1°C 160º 7kt >10km - Clouds and Visibility OK 1015 No Significant change LKPR 090400Z 16007KT CAVOK 06/01 Q1015 NOSIG
VFR 7°C / 0°C 150º 9kt >10km - Clouds and Visibility OK 1015 No Significant change LKPR 090330Z 15009KT CAVOK 07/00 Q1015 NOSIG
VFR 6°C / 1°C 160º 4kt >10km - Clouds and Visibility OK 1015 No Significant change LKPR 090300Z 16004KT CAVOK 06/01 Q1015 NOSIG
VFR 6°C / 1°C 180º 5kt >10km - Clouds and Visibility OK 1015 No Significant change LKPR 090230Z 18005KT CAVOK 06/01 Q1015 NOSIG
VFR 5°C / 1°C 180º 4kt >10km - Clouds and Visibility OK 1015 No Significant change LKPR 090200Z 18004KT CAVOK 05/01 Q1015 NOSIG
VFR 6°C / 1°C 180º 7kt >10km - Clouds and Visibility OK 1015 No Significant change LKPR 090130Z 18007KT CAVOK 06/01 Q1015 NOSIG
VFR 5°C / 1°C 170º 5kt >10km - Clouds and Visibility OK 1015 No Significant change LKPR 090100Z 17005KT CAVOK 05/01 Q1015 NOSIG
VFR 6°C / 1°C 170º 6kt >10km - Clouds and Visibility OK 1015 No Significant change LKPR 090030Z 17006KT CAVOK 06/01 Q1015 NOSIG
VFR 6°C / 0°C 160º 4kt >10km - Clouds and Visibility OK 1015 No Significant change LKPR 090000Z 16004KT CAVOK 06/00 Q1015 NOSIG
VFR 8°C / 0°C 150º 5kt >10km - Clouds and Visibility OK 1015 No Significant change LKPR 082330Z 15005KT CAVOK 08/00 Q1015 NOSIG
VFR 8°C / 0°C 140º 4kt >10km - Clouds and Visibility OK 1016 No Significant change LKPR 082300Z 14004KT CAVOK 08/M00 Q1016 NOSIG
VFR 9°C / -1°C 150º 3kt >10km - Clouds and Visibility OK 1016 No Significant change LKPR 082230Z 15003KT CAVOK 09/M01 Q1016 NOSIG
VFR 8°C / 0°C 120º 6kt >10km - Clouds and Visibility OK 1016 No Significant change LKPR 082200Z 12006KT CAVOK 08/00 Q1016 NOSIG
VFR 9°C / -1°C 150º 2kt >10km - Clouds and Visibility OK 1016 No Significant change LKPR 082130Z 15002KT CAVOK 09/M01 Q1016 NOSIG
VFR 9°C / -1°C 130º 3kt >10km - Clouds and Visibility OK 1016 No Significant change LKPR 082100Z 13003KT CAVOK 09/M01 Q1016 NOSIG
VFR 9°C / 0°C 120º 5kt >10km - Clouds and Visibility OK 1016 No Significant change LKPR 082030Z 12005KT CAVOK 09/M00 Q1016 NOSIG
VFR 9°C / 0°C 120º 6kt >10km - Clouds and Visibility OK 1016 No Significant change LKPR 082000Z 12006KT CAVOK 09/M00 Q1016 NOSIG
VFR 11°C / -1°C 130º 5kt >10km - Clouds and Visibility OK 1017 No Significant change LKPR 081930Z 13005KT CAVOK 11/M01 Q1017 NOSIG
VFR 11°C / -1°C 140º 5kt >10km - Clouds and Visibility OK 1017 No Significant change LKPR 081900Z 14005KT CAVOK 11/M01 Q1017 NOSIG
VFR 11°C / -1°C 160º 6kt >10km - Clouds and Visibility OK 1016 No Significant change LKPR 081830Z 16006KT CAVOK 11/M01 Q1016 NOSIG
VFR 12°C / -1°C 150º 7kt >10km - Clouds and Visibility OK 1016 No Significant change LKPR 081800Z 15007KT CAVOK 12/M01 Q1016 NOSIG
VFR 13°C / -1°C 150º 6kt >10km - Clouds and Visibility OK 1017 No Significant change LKPR 081730Z 15006KT CAVOK 13/M01 Q1017 NOSIG
VFR 14°C / -1°C 150º 7kt >10km - Clouds and Visibility OK 1017 No Significant change LKPR 081700Z 15007KT CAVOK 14/M01 Q1017 NOSIG

VFR

7°C / 1°C

[Più]
Vento 230º variable 190º to 260º 3kt
Visibilità >10km
Tempo -
Nuvole Clouds and Visibility OK
Pressione 1015
Cambiamento No Significant change
Grezzo LKPR 090430Z 23003KT 190V260 CAVOK 07/01 Q1015 NOSIG

VFR

6°C / 1°C

[Più]
Vento 160º 7kt
Visibilità >10km
Tempo -
Nuvole Clouds and Visibility OK
Pressione 1015
Cambiamento No Significant change
Grezzo LKPR 090400Z 16007KT CAVOK 06/01 Q1015 NOSIG

VFR

7°C / 0°C

[Più]
Vento 150º 9kt
Visibilità >10km
Tempo -
Nuvole Clouds and Visibility OK
Pressione 1015
Cambiamento No Significant change
Grezzo LKPR 090330Z 15009KT CAVOK 07/00 Q1015 NOSIG

VFR

6°C / 1°C

[Più]
Vento 160º 4kt
Visibilità >10km
Tempo -
Nuvole Clouds and Visibility OK
Pressione 1015
Cambiamento No Significant change
Grezzo LKPR 090300Z 16004KT CAVOK 06/01 Q1015 NOSIG

VFR

6°C / 1°C

[Più]
Vento 180º 5kt
Visibilità >10km
Tempo -
Nuvole Clouds and Visibility OK
Pressione 1015
Cambiamento No Significant change
Grezzo LKPR 090230Z 18005KT CAVOK 06/01 Q1015 NOSIG

VFR

5°C / 1°C

[Più]
Vento 180º 4kt
Visibilità >10km
Tempo -
Nuvole Clouds and Visibility OK
Pressione 1015
Cambiamento No Significant change
Grezzo LKPR 090200Z 18004KT CAVOK 05/01 Q1015 NOSIG

VFR

6°C / 1°C

[Più]
Vento 180º 7kt
Visibilità >10km
Tempo -
Nuvole Clouds and Visibility OK
Pressione 1015
Cambiamento No Significant change
Grezzo LKPR 090130Z 18007KT CAVOK 06/01 Q1015 NOSIG

VFR

5°C / 1°C

[Più]
Vento 170º 5kt
Visibilità >10km
Tempo -
Nuvole Clouds and Visibility OK
Pressione 1015
Cambiamento No Significant change
Grezzo LKPR 090100Z 17005KT CAVOK 05/01 Q1015 NOSIG

VFR

6°C / 1°C

[Più]
Vento 170º 6kt
Visibilità >10km
Tempo -
Nuvole Clouds and Visibility OK
Pressione 1015
Cambiamento No Significant change
Grezzo LKPR 090030Z 17006KT CAVOK 06/01 Q1015 NOSIG

VFR

6°C / 0°C

[Più]
Vento 160º 4kt
Visibilità >10km
Tempo -
Nuvole Clouds and Visibility OK
Pressione 1015
Cambiamento No Significant change
Grezzo LKPR 090000Z 16004KT CAVOK 06/00 Q1015 NOSIG

VFR

8°C / 0°C

[Più]
Vento 150º 5kt
Visibilità >10km
Tempo -
Nuvole Clouds and Visibility OK
Pressione 1015
Cambiamento No Significant change
Grezzo LKPR 082330Z 15005KT CAVOK 08/00 Q1015 NOSIG

VFR

8°C / 0°C

[Più]
Vento 140º 4kt
Visibilità >10km
Tempo -
Nuvole Clouds and Visibility OK
Pressione 1016
Cambiamento No Significant change
Grezzo LKPR 082300Z 14004KT CAVOK 08/M00 Q1016 NOSIG

VFR

9°C / -1°C

[Più]
Vento 150º 3kt
Visibilità >10km
Tempo -
Nuvole Clouds and Visibility OK
Pressione 1016
Cambiamento No Significant change
Grezzo LKPR 082230Z 15003KT CAVOK 09/M01 Q1016 NOSIG

VFR

8°C / 0°C

[Più]
Vento 120º 6kt
Visibilità >10km
Tempo -
Nuvole Clouds and Visibility OK
Pressione 1016
Cambiamento No Significant change
Grezzo LKPR 082200Z 12006KT CAVOK 08/00 Q1016 NOSIG

VFR

9°C / -1°C

[Più]
Vento 150º 2kt
Visibilità >10km
Tempo -
Nuvole Clouds and Visibility OK
Pressione 1016
Cambiamento No Significant change
Grezzo LKPR 082130Z 15002KT CAVOK 09/M01 Q1016 NOSIG

VFR

9°C / -1°C

[Più]
Vento 130º 3kt
Visibilità >10km
Tempo -
Nuvole Clouds and Visibility OK
Pressione 1016
Cambiamento No Significant change
Grezzo LKPR 082100Z 13003KT CAVOK 09/M01 Q1016 NOSIG

VFR

9°C / 0°C

[Più]
Vento 120º 5kt
Visibilità >10km
Tempo -
Nuvole Clouds and Visibility OK
Pressione 1016
Cambiamento No Significant change
Grezzo LKPR 082030Z 12005KT CAVOK 09/M00 Q1016 NOSIG

VFR

9°C / 0°C

[Più]
Vento 120º 6kt
Visibilità >10km
Tempo -
Nuvole Clouds and Visibility OK
Pressione 1016
Cambiamento No Significant change
Grezzo LKPR 082000Z 12006KT CAVOK 09/M00 Q1016 NOSIG

VFR

11°C / -1°C

[Più]
Vento 130º 5kt
Visibilità >10km
Tempo -
Nuvole Clouds and Visibility OK
Pressione 1017
Cambiamento No Significant change
Grezzo LKPR 081930Z 13005KT CAVOK 11/M01 Q1017 NOSIG

VFR

11°C / -1°C

[Più]
Vento 140º 5kt
Visibilità >10km
Tempo -
Nuvole Clouds and Visibility OK
Pressione 1017
Cambiamento No Significant change
Grezzo LKPR 081900Z 14005KT CAVOK 11/M01 Q1017 NOSIG

VFR

11°C / -1°C

[Più]
Vento 160º 6kt
Visibilità >10km
Tempo -
Nuvole Clouds and Visibility OK
Pressione 1016
Cambiamento No Significant change
Grezzo LKPR 081830Z 16006KT CAVOK 11/M01 Q1016 NOSIG

VFR

12°C / -1°C

[Più]
Vento 150º 7kt
Visibilità >10km
Tempo -
Nuvole Clouds and Visibility OK
Pressione 1016
Cambiamento No Significant change
Grezzo LKPR 081800Z 15007KT CAVOK 12/M01 Q1016 NOSIG

VFR

13°C / -1°C

[Più]
Vento 150º 6kt
Visibilità >10km
Tempo -
Nuvole Clouds and Visibility OK
Pressione 1017
Cambiamento No Significant change
Grezzo LKPR 081730Z 15006KT CAVOK 13/M01 Q1017 NOSIG

VFR

14°C / -1°C

[Più]
Vento 150º 7kt
Visibilità >10km
Tempo -
Nuvole Clouds and Visibility OK
Pressione 1017
Cambiamento No Significant change
Grezzo LKPR 081700Z 15007KT CAVOK 14/M01 Q1017 NOSIG

TAF per 50.1°N 14.27°E (LKPR)

From till


From till Wind 160º 7kt. Visibility 10km or more. Nil Significant Cloud.
Temporarly from till Wind variable 2kt.
Temporarly from till Wind 140º 10kt. Gust 20kt.

Grezzo: TAF LKPR 082300Z 0900/1006 16007KT CAVOK TEMPO 0900/0906 VRB02KT TEMPO 0912/0922 14010G20KT

Tempo in atto per 50.1°N 14.27°E: immagine satellitare e pioggia

  • Precipitazioni:
  • <1 mm
  • 1-2 mm
  • 2-5 mm
  • >5 mm

Il segnaposto è situato a 50.1°N 14.27°E. [Più]

L'immagine satellitare in tempo reale combina la luce visibile durante il giorno con la radiazione infrarossa durante la notte. Di notte l'immagine non è scura poiché i raggi infrarossi possono rilevare differenze di temperatura. Purtroppo, le nuvole basse e la nebbia sono difficili da distinguere dalla temperatura del suolo e possono pertanto essere quasi invisibili durante la notte. Le immagini satellitari Meteosat per l'Europa vengono aggiornate in tempo reale ogni 5 minuti. Le immagini GOES-16 / GOES-17 (Nord e Sud America) e Himawari (Asia) vengono aggiornate ogni 10 minuti.

Le precipitazioni sono stimate da radar e satellite. Una precipitazione notturna stimata da satellite è meno accurata di una diurna. Le croci arancioni identificano i fulmini caduti (in Europa).

Copyright 2021 EUMETSAT / meteoblue. Fulminazioni fornite da nowcast.

Radar e nowcasting per 50.1°N 14.27°E

Il segnaposto è situato a 50.1°N 14.27°E. Questa animazione mostra il radar delle precipitazioni per l'ultima ora, nonché una previsione 1h. Il radar può non individuare correttamente pioviggine o nevischio. L’intensità delle precipitazioni è associata a una scala di colori, dal blu chiaro fino al viola scuro.